Radiosonde details



Informationen :

Serial : X3123476
Type : RS41-SGE
Frequency : 403.000MHz
Launchsite : Keflavikurflugvollur
Nearest town : Garður, IS (10.7km)

Altitude (Max) : 23927m at 2026-09-03 12:10:22
Speed (Max) : 52km/h at altitude 1614m

Average speed : 28km/h
Average ascent rate : 6m/s
Average descent rate : -22m/s
Ascent rate (Max) : 10.1m/s
Descent rate (Max): -54.2m/s

First frame :
DL9RDZ-2 at 2026-09-03 11:06:13 at altitude 1144m (OG: 1102m)
Last frame :
DL9RDZ-1 at 2026-09-03 12:28:06 at altitude 602m (OG: 560m)

Flighttime : 1h21m53s
Ascent time : 1h4m9s
Descent time : 17m44s
Uptime : -
Killtimer : 8h15m

Distance (Straight line distance): 22km

Distance (Route):


Frames : 330


Measurement :

Temperature : 4.3°C
Humidity : 83.3%
Pressure : 0hPa


Vertical profile (SkewT) :


Elevation profile :



Receiving stations :


Receiver Frames First received Last received
DL9RDZ-1 330 2026-09-03 11:06:13 2026-09-03 12:28:06

Share per receiver :



All frames :


Receiver Date Latitude Longitude Direction Speed Altitude Climb Temperature Humidity Pressure Voltage Killtimer Uptime BKT XDATA
DL9RDZ-12026-09-03 12:28:0664.14900-22.52528220°26km/h602m-13.5m/s4.3°C83.3%0hPa0V00:00:0000:00:0000:00:00
DL9RDZ-12026-09-03 12:27:5564.14960-22.52437221°24km/h750m-14.1m/s2.9°C88.6%0hPa0V00:00:0000:00:0000:00:00
DL9RDZ-12026-09-03 12:27:4564.15014-22.52337219°29km/h889m-14.0m/s1.7°C91.7%0hPa0V00:00:0000:00:0000:00:00
DL9RDZ-12026-09-03 12:27:3564.15069-22.52215229°31km/h1024m-14.0m/s0.9°C93.8%0hPa0V00:00:0000:00:0000:00:00
DL9RDZ-12026-09-03 12:27:2464.15138-22.52072226°27km/h1188m-14.6m/s0.5°C91.5%0hPa0V08:15:0000:00:0000:00:00
DL9RDZ-12026-09-03 12:27:1364.15182-22.51945232°27km/h1326m-13.3m/s-0.1°C91.7%0hPa0V08:15:0000:00:0000:00:00
DL9RDZ-12026-09-03 12:27:0264.15224-22.51859210°18km/h1473m-14.6m/s-0.4°C88.3%0hPa0V08:15:0000:00:0000:00:00
DL9RDZ-12026-09-03 12:26:5164.15257-22.51845148°7km/h1624m-14.8m/s-1.4°C96.7%0hPa0V08:15:0000:00:0000:00:00
DL9RDZ-12026-09-03 12:26:4164.15263-22.51832289°7km/h1761m-14.8m/s-1.7°C92.5%0hPa0V08:16:0000:00:0000:00:00
DL9RDZ-12026-09-03 12:26:3164.15255-22.51779296°13km/h1902m-14.5m/s-2.7°C96.8%0hPa0V08:16:0000:00:0000:00:00
DL9RDZ-12026-09-03 12:26:2064.15224-22.51680321°22km/h2059m-14.4m/s-3.5°C96.9%0hPa0V08:16:0000:00:0000:00:00
DL9RDZ-12026-09-03 12:26:1064.15190-22.51612318°11km/h2199m-14.7m/s-4.3°C96.8%0hPa0V08:16:0000:00:0000:00:00
DL9RDZ-12026-09-03 12:25:5964.15177-22.51564274°7km/h2352m-13.7m/s-5.2°C99.9%0hPa0V08:16:0000:00:0000:00:00
DL9RDZ-12026-09-03 12:25:4864.15181-22.51519269°7km/h2505m-14.6m/s-6.4°C99.4%0hPa0V08:16:0000:00:0000:00:00
DL9RDZ-12026-09-03 12:25:3864.15189-22.51465245°15km/h2646m-15.3m/s-7.0°C94.8%0hPa0V08:16:0000:00:0000:00:00
DL9RDZ-12026-09-03 12:25:2764.15213-22.51390237°15km/h2806m-14.6m/s-7.6°C92.6%0hPa0V08:16:0000:00:0000:00:00
DL9RDZ-12026-09-03 12:25:1764.15223-22.51295253°18km/h2954m-15.7m/s-8.0°C86.6%0hPa0V08:16:0000:00:0000:00:00
DL9RDZ-12026-09-03 12:25:0664.15234-22.51177268°16km/h3116m-15.4m/s-8.5°C87.4%0hPa0V08:16:0000:00:0000:00:00
DL9RDZ-12026-09-03 12:24:5564.15236-22.51071274°20km/h3278m-14.3m/s-8.9°C88.8%0hPa0V08:17:0000:00:0000:00:00
DL9RDZ-12026-09-03 12:24:3564.15199-22.50859295°27km/h3572m-15.3m/s-10.3°C92.3%0hPa0V08:17:0000:00:0000:00:00
DL9RDZ-12026-09-03 12:24:2564.15174-22.50719289°27km/h3722m-16.3m/s-11.2°C95.8%0hPa0V08:17:0000:00:0000:00:00
DL9RDZ-12026-09-03 12:24:1564.15160-22.50576277°24km/h3878m-16.0m/s-12.1°C90.7%0hPa0V08:17:0000:00:0000:00:00
DL9RDZ-12026-09-03 12:24:0564.15150-22.50442279°22km/h4033m-15.8m/s-13.1°C91.6%0hPa0V08:18:0000:00:0000:00:00
DL9RDZ-12026-09-03 12:23:5464.15137-22.50317287°22km/h4203m-15.9m/s-13.2°C78.8%0hPa0V08:18:0000:00:0000:00:00
DL9RDZ-12026-09-03 12:23:4364.15118-22.50203304°18km/h4376m-16.8m/s-14.4°C79.9%0hPa0V08:18:0000:00:0000:00:00
DL9RDZ-12026-09-03 12:23:3264.15094-22.50118320°16km/h4548m-16.5m/s-15.8°C90.1%0hPa0V08:18:0000:00:0000:00:00
DL9RDZ-12026-09-03 12:23:2264.15065-22.50079329°11km/h4709m-16.6m/s-16.6°C92.9%0hPa0V08:18:0000:00:0000:00:00
DL9RDZ-12026-09-03 12:23:1264.15036-22.50064358°15km/h4884m-16.4m/s-17.5°C90.0%0hPa0V08:19:0000:00:0000:00:00
DL9RDZ-12026-09-03 12:23:0064.14989-22.50064350°22km/h5060m-16.5m/s-18.7°C85.6%0hPa0V08:19:0000:00:0000:00:00
DL9RDZ-12026-09-03 12:22:4964.14928-22.50039352°22km/h5243m-16.6m/s-20.1°C86.9%0hPa0V08:19:0000:00:0000:00:00
DL9RDZ-12026-09-03 12:22:4064.14880-22.50010334°18km/h5405m-17.0m/s-21.2°C93.0%0hPa0V08:19:0000:00:0000:00:00
DL9RDZ-12026-09-03 12:22:2864.14841-22.49956329°18km/h5591m-17.7m/s-22.5°C90.2%0hPa0V08:19:0000:00:0000:00:00
DL9RDZ-12026-09-03 12:22:1764.14801-22.49887320°16km/h5777m-17.0m/s-23.8°C86.7%0hPa0V08:20:0000:00:0000:00:00
DL9RDZ-12026-09-03 12:22:0664.14754-22.49799322°24km/h5964m-17.1m/s-25.4°C94.2%0hPa0V08:20:0000:00:0000:00:00
DL9RDZ-12026-09-03 12:21:5564.14700-22.49690314°26km/h6155m-17.9m/s-27.1°C0%0hPa0V08:20:0000:00:0000:00:00
DL9RDZ-12026-09-03 12:21:4464.14642-22.49558317°33km/h6348m-17.7m/s-28.7°C59.3%0hPa0V08:20:0000:00:0000:00:00
DL9RDZ-12026-09-03 12:21:3364.14584-22.49419314°29km/h6543m-18.2m/s-30.0°C43.4%0hPa0V08:21:0000:00:0000:00:00
DL9RDZ-12026-09-03 12:21:2364.14545-22.49285306°27km/h6721m-18.9m/s-31.5°C47.0%0hPa0V08:21:0000:00:0000:00:00
DL9RDZ-12026-09-03 12:21:1364.14509-22.49121290°31km/h6923m-18.5m/s-33.0°C49.2%0hPa0V08:21:0000:00:0000:00:00
DL9RDZ-12026-09-03 12:21:0164.14487-22.48951287°27km/h7129m-19.7m/s-34.7°C54.3%0hPa0V08:21:0000:00:0000:00:00
DL9RDZ-12026-09-03 12:20:5164.14471-22.48804287°24km/h7316m-19.2m/s-36.5°C69.6%0hPa0V08:21:0000:00:0000:00:00
DL9RDZ-12026-09-03 12:20:4064.14454-22.48656288°22km/h7518m-19.4m/s-38.4°C72.5%0hPa0V08:21:0000:00:0000:00:00
DL9RDZ-12026-09-03 12:20:2964.14435-22.48508295°26km/h7720m-19.1m/s-40.2°C72.0%0hPa0V08:21:0000:00:0000:00:00
DL9RDZ-12026-09-03 12:20:1064.14385-22.48207286°27km/h8109m-17.8m/s-43.7°C62.2%0hPa0V00:00:0000:00:0000:00:00
DL9RDZ-12026-09-03 12:19:5764.14364-22.48037298°26km/h8302m-18.8m/s-45.4°C37.7%0hPa0V08:21:0000:00:0000:00:00
DL9RDZ-12026-09-03 12:19:4664.14325-22.47885304°27km/h8512m-20.5m/s-46.7°C31.6%0hPa0V08:22:0000:00:0000:00:00
DL9RDZ-12026-09-03 12:19:3564.14290-22.47739299°26km/h8739m-20.5m/s-48.2°C27.7%0hPa0V08:22:0000:00:0000:00:00
DL9RDZ-12026-09-03 12:19:2664.14245-22.47599314°33km/h8934m-20.8m/s-49.2°C26.6%0hPa0V08:22:0000:00:0000:00:00
DL9RDZ-12026-09-03 12:19:1464.14178-22.47464326°31km/h9146m-20.0m/s-50.3°C26.9%0hPa0V08:22:0000:00:0000:00:00
DL9RDZ-12026-09-03 12:19:0364.14091-22.47333329°38km/h9371m-20.8m/s-50.5°C22.5%0hPa0V08:23:0000:00:0000:00:00
DL9RDZ-12026-09-03 12:18:5364.14018-22.47231333°29km/h9576m-21.0m/s-51.3°C21.6%0hPa0V08:23:0000:00:0000:00:00
DL9RDZ-12026-09-03 12:18:4264.13933-22.47123334°38km/h9802m-21.2m/s-52.2°C18.2%0hPa0V08:23:0000:00:0000:00:00
DL9RDZ-12026-09-03 12:18:2964.13824-22.47016337°38km/h10085m-20.9m/s-52.7°C13.0%0hPa0V08:23:0000:00:0000:00:00
DL9RDZ-12026-09-03 12:18:1864.13727-22.46944342°37km/h10315m-20.8m/s-53.0°C9.0%0hPa0V08:23:0000:00:0000:00:00
DL9RDZ-12026-09-03 12:18:0864.13631-22.46899358°35km/h10542m-20.9m/s-50.4°C4.4%0hPa0V08:24:0000:00:0000:00:00
DL9RDZ-12026-09-03 12:17:5764.13555-22.46904360°22km/h10760m-22.2m/s-49.9°C3.1%0hPa0V08:24:0000:00:0000:00:00
DL9RDZ-12026-09-03 12:17:4664.13477-22.4691012°29km/h11004m-22.5m/s-47.9°C1.9%0hPa0V08:24:0000:00:0000:00:00
DL9RDZ-12026-09-03 12:17:3664.13418-22.4695119°18km/h11236m-23.9m/s-47.8°C1.7%0hPa0V08:24:0000:00:0000:00:00
DL9RDZ-12026-09-03 12:17:2564.13352-22.4698417°27km/h11492m-23.6m/s-46.9°C1.5%0hPa0V08:24:0000:00:0000:00:00
DL9RDZ-12026-09-03 12:17:1464.13283-22.4706632°26km/h11756m-24.8m/s-46.3°C1.3%0hPa0V08:25:0000:00:0000:00:00
DL9RDZ-12026-09-03 12:17:0364.13222-22.4714932°24km/h12021m-24.1m/s-45.8°C1.2%0hPa0V08:25:0000:00:0000:00:00
DL9RDZ-12026-09-03 12:16:5364.13169-22.4721938°24km/h12272m-25.9m/s-45.7°C1.3%0hPa0V08:25:0000:00:0000:00:00
DL9RDZ-12026-09-03 12:16:4364.13102-22.4731735°31km/h12553m-25.5m/s-45.9°C1.1%0hPa0V08:25:0000:00:0000:00:00
DL9RDZ-12026-09-03 12:16:3264.13038-22.4743040°37km/h12808m-26.3m/s-44.9°C1.0%0hPa0V08:25:0000:00:0000:00:00
DL9RDZ-12026-09-03 12:16:2264.12981-22.4755146°31km/h13075m-26.9m/s-45.5°C1.0%0hPa0V08:26:0000:00:0000:00:00
DL9RDZ-12026-09-03 12:16:1264.12924-22.4768449°31km/h13360m-26.5m/s-45.5°C1.0%0hPa0V08:26:0000:00:0000:00:00
DL9RDZ-12026-09-03 12:15:4764.12807-22.4799943°26km/h14019m-27.9m/s-44.6°C0.9%0hPa0V08:26:0000:00:0000:00:00
DL9RDZ-12026-09-03 12:15:3764.12753-22.4810453°31km/h14311m-30.6m/s-44.8°C0.8%0hPa0V08:27:0000:00:0000:00:00
DL9RDZ-12026-09-03 12:15:2764.12703-22.4823751°33km/h14615m-29.4m/s-45.2°C0.9%0hPa0V08:27:0000:00:0000:00:00
DL9RDZ-12026-09-03 12:15:1864.12650-22.4838153°35km/h14904m-30.2m/s-45.7°C0.9%0hPa0V08:27:0000:00:0000:00:00
DL9RDZ-12026-09-03 12:14:5864.12547-22.4868953°31km/h15527m-32.9m/s-45.8°C0.9%0hPa0V08:27:0000:00:0000:00:00
DL9RDZ-12026-09-03 12:14:4664.12503-22.4886759°37km/h15878m-33.0m/s-46.5°C0.9%0hPa0V08:27:0000:00:0000:00:00
DL9RDZ-12026-09-03 12:14:3664.12455-22.4904645°31km/h16239m-33.8m/s-45.8°C0.8%0hPa0V08:27:0000:00:0000:00:00
DL9RDZ-12026-09-03 12:14:1164.12332-22.4944556°31km/h17036m-34.0m/s-45.1°C0.7%0hPa0V08:27:0000:00:0000:00:00
DL9RDZ-12026-09-03 12:14:0064.12287-22.4960157°33km/h17424m-36.0m/s-45.6°C0.8%0hPa0V08:27:0000:00:0000:00:00
DL9RDZ-12026-09-03 12:13:4964.12224-22.4977655°44km/h17835m-38.1m/s-46.5°C0.8%0hPa0V08:28:0000:00:0000:00:00
DL9RDZ-12026-09-03 12:13:3964.12172-22.4998057°35km/h18221m-39.1m/s-46.5°C0.8%0hPa0V08:28:0000:00:0000:00:00
DL9RDZ-12026-09-03 12:13:1264.12045-22.5046761°27km/h19295m-41.3m/s-46.5°C0.8%0hPa0V08:28:0000:00:0000:00:00
DL9RDZ-12026-09-03 12:13:0164.12006-22.5059345°27km/h19690m-37.3m/s-47.0°C0.8%0hPa0V08:29:0000:00:0000:00:00
DL9RDZ-12026-09-03 12:12:5064.11934-22.5070932°35km/h20145m-45.0m/s-46.7°C0.7%0hPa0V08:29:0000:00:0000:00:00
DL9RDZ-12026-09-03 12:12:3964.11866-22.5089068°38km/h20638m-43.0m/s-46.4°C0.7%0hPa0V08:29:0000:00:0000:00:00
DL9RDZ-12026-09-03 12:12:0264.11742-22.5144349°29km/h22409m-50.8m/s-47.1°C0.7%0hPa0V00:00:0000:00:0000:00:00
DL9RDZ-12026-09-03 12:11:4664.11645-22.5169750°44km/h23205m-54.2m/s-47.3°C0.8%0hPa0V00:00:0000:00:0000:00:00
DL9RDZ-12026-09-03 12:10:2264.11348-22.5343575°40km/h23927m6.4m/s-45.8°C0.7%0hPa0V00:00:0000:00:0000:00:00
DL9RDZ-12026-09-03 12:10:1264.11304-22.5359944°35km/h23866m6.3m/s-46.2°C0.7%0hPa0V00:00:0000:00:0000:00:00
DL9RDZ-12026-09-03 12:10:0364.11242-22.5374147°37km/h23804m5.4m/s-46.1°C0.7%0hPa0V00:00:0000:00:0000:00:00
DL9RDZ-12026-09-03 12:09:3764.11130-22.5417951°37km/h23658m4.5m/s-46.7°C0.7%0hPa0V00:00:0000:00:0000:00:00
DL9RDZ-12026-09-03 12:09:2064.11033-22.5451648°46km/h23552m3.5m/s-47.2°C0.7%0hPa0V00:00:0000:00:0000:00:00
DL9RDZ-12026-09-03 12:09:1064.10957-22.5470740°47km/h23488m5.8m/s-47.6°C0.8%0hPa0V00:00:0000:00:0000:00:00
DL9RDZ-12026-09-03 12:08:5064.10792-22.5504239°44km/h23359m7.3m/s-47.8°C0.7%0hPa0V00:00:0000:00:0000:00:00
DL9RDZ-12026-09-03 12:08:3964.10727-22.5522750°49km/h23299m5.7m/s-48.1°C0.8%0hPa0V00:00:0000:00:0000:00:00
DL9RDZ-12026-09-03 12:08:1964.10523-22.5561122°40km/h23171m4.7m/s-48.5°C0.8%0hPa0V00:00:0000:00:0000:00:00
DL9RDZ-12026-09-03 12:07:3164.10220-22.5618266°38km/h22880m6.6m/s-48.2°C0.8%0hPa0V00:00:0000:00:0000:00:00
DL9RDZ-12026-09-03 12:07:1064.10103-22.5658661°40km/h22746m6.5m/s-47.9°C0.8%0hPa0V00:00:0000:00:0000:00:00
DL9RDZ-12026-09-03 12:06:5864.10035-22.5680058°38km/h22681m4.8m/s-47.8°C0.8%0hPa0V00:00:0000:00:0000:00:00
DL9RDZ-12026-09-03 12:06:4964.09979-22.5695140°27km/h22620m5.3m/s-47.8°C0.8%0hPa0V00:00:0000:00:0000:00:00
DL9RDZ-12026-09-03 12:06:3864.09923-22.5705745°37km/h22562m6.6m/s-48.2°C0.8%0hPa0V00:00:0000:00:0000:00:00
DL9RDZ-12026-09-03 12:06:2864.09854-22.5710822°22km/h22499m6.7m/s-48.1°C0.8%0hPa0V00:00:0000:00:0000:00:00
DL9RDZ-12026-09-03 12:06:1664.09796-22.5715612°22km/h22433m5.7m/s-48.1°C0.8%0hPa0V00:00:0000:00:0000:00:00
DL9RDZ-12026-09-03 12:06:0564.09754-22.5719132°15km/h22369m6.7m/s-47.9°C0.8%0hPa0V00:00:0000:00:0000:00:00
DL9RDZ-12026-09-03 12:05:5564.09719-22.5725350°9km/h22311m4.9m/s-47.9°C0.8%0hPa0V00:00:0000:00:0000:00:00
DL9RDZ-12026-09-03 12:05:4564.09711-22.5734969°16km/h22247m5.4m/s-47.8°C0.8%0hPa0V00:00:0000:00:0000:00:00
DL9RDZ-12026-09-03 12:05:3364.09702-22.5750086°29km/h22183m4.7m/s-47.8°C0.8%0hPa0V00:00:0000:00:0000:00:00
DL9RDZ-12026-09-03 12:05:2364.09691-22.5769475°33km/h22120m6.0m/s-48.1°C0.8%0hPa0V00:00:0000:00:0000:00:00
DL9RDZ-12026-09-03 12:05:1164.09677-22.5796369°37km/h22049m4.4m/s-48.1°C0.8%0hPa0V00:00:0000:00:0000:00:00
DL9RDZ-12026-09-03 12:04:5464.09624-22.5831553°42km/h21956m4.9m/s-48.2°C0.8%0hPa0V00:00:0000:00:0000:00:00
DL9RDZ-12026-09-03 12:03:2264.09167-22.5971819°27km/h21400m7.3m/s-47.9°C0.8%0hPa0V00:00:0000:00:0000:00:00
DL9RDZ-12026-09-03 12:03:1364.09125-22.5979745°24km/h21338m5.6m/s-47.7°C0.8%0hPa0V00:00:0000:00:0000:00:00
DL9RDZ-12026-09-03 12:03:0164.09075-22.5985760°20km/h21275m5.9m/s-47.8°C0.9%0hPa0V00:00:0000:00:0000:00:00
DL9RDZ-12026-09-03 12:01:4564.08912-22.6098692°27km/h20802m5.7m/s-46.9°C0.8%0hPa0V00:00:0000:00:0000:00:00
DL9RDZ-12026-09-03 12:00:3564.08493-22.6227441°42km/h20368m7.0m/s-47.3°C0.8%0hPa0V00:00:0000:00:0000:00:00
DL9RDZ-12026-09-03 11:59:1064.07915-22.6315530°33km/h19874m5.9m/s-47.5°C0.9%0hPa0V00:00:0000:00:0000:00:00
DL9RDZ-12026-09-03 11:58:5464.07835-22.6330644°13km/h19779m7.0m/s-47.6°C0.9%0hPa0V00:00:0000:00:0000:00:00
DL9RDZ-12026-09-03 11:58:4264.07796-22.6345754°26km/h19720m6.1m/s-47.6°C0.9%0hPa0V00:00:0000:00:0000:00:00
DL9RDZ-12026-09-03 11:58:3264.07763-22.6359770°20km/h19657m6.0m/s-47.5°C0.9%0hPa0V00:00:0000:00:0000:00:00
DL9RDZ-12026-09-03 11:58:2164.07731-22.6373072°35km/h19603m5.9m/s-47.3°C0.9%0hPa0V00:00:0000:00:0000:00:00
DL9RDZ-12026-09-03 11:57:3464.07591-22.6449569°40km/h19341m6.5m/s-47.3°C0.9%0hPa0V00:00:0000:00:0000:00:00
DL9RDZ-12026-09-03 11:57:2464.07555-22.6469069°33km/h19280m6.9m/s-47.0°C0.9%0hPa0V00:00:0000:00:0000:00:00
DL9RDZ-12026-09-03 11:57:1364.07506-22.6489373°29km/h19219m4.6m/s-46.8°C0.9%0hPa0V00:00:0000:00:0000:00:00
DL9RDZ-12026-09-03 11:57:0164.07475-22.6511064°31km/h19158m5.1m/s-46.5°C0.8%0hPa0V00:00:0000:00:0000:00:00
DL9RDZ-12026-09-03 11:56:5064.07435-22.6532560°40km/h19100m5.8m/s-46.8°C0.8%0hPa0V00:00:0000:00:0000:00:00
DL9RDZ-12026-09-03 11:56:4064.07369-22.6551749°47km/h19043m3.1m/s-46.7°C0.9%0hPa0V00:00:0000:00:0000:00:00
DL9RDZ-12026-09-03 11:56:3164.07307-22.6567858°40km/h18990m6.3m/s-46.7°C0.8%0hPa0V00:00:0000:00:0000:00:00
DL9RDZ-12026-09-03 11:56:2064.07255-22.6590866°40km/h18925m5.0m/s-46.7°C0.9%0hPa0V00:00:0000:00:0000:00:00
DL9RDZ-12026-09-03 11:56:0864.07204-22.6614164°44km/h18861m5.9m/s-47.0°C0.9%0hPa0V00:00:0000:00:0000:00:00
DL9RDZ-12026-09-03 11:55:5864.07143-22.6636953°40km/h18797m6.3m/s-47.0°C0.9%0hPa0V00:00:0000:00:0000:00:00
DL9RDZ-12026-09-03 11:55:4764.07076-22.6659956°42km/h18733m5.1m/s-46.9°C0.9%0hPa0V00:00:0000:00:0000:00:00
DL9RDZ-12026-09-03 11:55:3664.06998-22.6679749°35km/h18671m4.9m/s-47.1°C0.9%0hPa0V00:00:0000:00:0000:00:00
DL9RDZ-12026-09-03 11:55:2464.06927-22.6694652°29km/h18605m6.6m/s-47.1°C0.9%0hPa0V00:00:0000:00:0000:00:00
DL9RDZ-12026-09-03 11:55:1464.06866-22.6705639°26km/h18539m6.2m/s-46.9°C0.9%0hPa0V00:00:0000:00:0000:00:00
DL9RDZ-12026-09-03 11:55:0264.06825-22.6717545°24km/h18473m5.1m/s-46.7°C0.9%0hPa0V00:00:0000:00:0000:00:00
DL9RDZ-12026-09-03 11:54:5264.06796-22.6730871°31km/h18417m4.9m/s-46.5°C0.9%0hPa0V00:00:0000:00:0000:00:00
DL9RDZ-12026-09-03 11:54:4164.06757-22.6745773°33km/h18356m7.6m/s-46.4°C0.9%0hPa0V00:00:0000:00:0000:00:00
DL9RDZ-12026-09-03 11:54:3064.06718-22.6762548°29km/h18293m6.7m/s-46.2°C0.9%0hPa0V00:00:0000:00:0000:00:00
DL9RDZ-12026-09-03 11:54:2064.06669-22.6777672°29km/h18233m4.4m/s-46.1°C0.9%0hPa0V00:00:0000:00:0000:00:00
DL9RDZ-12026-09-03 11:54:1064.06617-22.6796658°38km/h18174m4.9m/s-46.1°C0.9%0hPa0V00:00:0000:00:0000:00:00
DL9RDZ-12026-09-03 11:53:5964.06578-22.6814762°35km/h18116m3.9m/s-46.2°C0.9%0hPa0V00:00:0000:00:0000:00:00
DL9RDZ-12026-09-03 11:53:4864.06539-22.6837270°40km/h18053m6.3m/s-46.5°C0.9%0hPa0V00:00:0000:00:0000:00:00
DL9RDZ-12026-09-03 11:53:3764.06496-22.6861859°42km/h17994m4.1m/s-46.5°C0.9%0hPa0V00:00:0000:00:0000:00:00
DL9RDZ-12026-09-03 11:52:3264.06105-22.6991027°26km/h17654m4.6m/s-45.9°C1.0%0hPa0V00:00:0000:00:0000:00:00
DL9RDZ-12026-09-03 11:52:2264.06055-22.7003344°29km/h17600m3.0m/s-45.9°C0.9%0hPa0V00:00:0000:00:0000:00:00
DL9RDZ-12026-09-03 11:52:1164.06001-22.7018955°27km/h17542m7.0m/s-45.5°C0.9%0hPa0V00:00:0000:00:0000:00:00
DL9RDZ-12026-09-03 11:52:0064.05959-22.7034557°29km/h17482m4.6m/s-45.3°C0.9%0hPa0V00:00:0000:00:0000:00:00
DL9RDZ-12026-09-03 11:51:5064.05922-22.7049367°33km/h17428m5.6m/s-45.6°C0.9%0hPa0V00:00:0000:00:0000:00:00
DL9RDZ-12026-09-03 11:51:3964.05880-22.7068261°38km/h17371m3.9m/s-45.4°C0.9%0hPa0V00:00:0000:00:0000:00:00
DL9RDZ-12026-09-03 11:51:2964.05836-22.7085564°29km/h17318m6.0m/s-45.1°C0.9%0hPa0V00:00:0000:00:0000:00:00
DL9RDZ-12026-09-03 11:51:1764.05804-22.7104468°27km/h17256m4.9m/s-45.0°C0.9%0hPa0V00:00:0000:00:0000:00:00
DL9RDZ-12026-09-03 11:51:0764.05779-22.7119065°31km/h17203m4.6m/s-45.2°C0.9%0hPa0V00:00:0000:00:0000:00:00
DL9RDZ-12026-09-03 11:50:5764.05738-22.7135856°29km/h17148m5.5m/s-45.4°C0.9%0hPa0V00:00:0000:00:0000:00:00
DL9RDZ-12026-09-03 11:50:4664.05679-22.7152057°31km/h17090m4.7m/s-45.2°C0.9%0hPa0V00:00:0000:00:0000:00:00
DL9RDZ-12026-09-03 11:50:3664.05637-22.7171653°35km/h17033m5.2m/s-45.2°C0.9%0hPa0V00:00:0000:00:0000:00:00
DL9RDZ-12026-09-03 11:50:2664.05588-22.7186758°33km/h16979m5.9m/s-45.0°C0.9%0hPa0V00:00:0000:00:0000:00:00
DL9RDZ-12026-09-03 11:50:1564.05540-22.7203158°35km/h16926m6.4m/s-45.0°C0.9%0hPa0V00:00:0000:00:0000:00:00
DL9RDZ-12026-09-03 11:50:0464.05488-22.7223859°40km/h16867m7.5m/s-45.3°C0.9%0hPa0V00:00:0000:00:0000:00:00
DL9RDZ-12026-09-03 11:49:5464.05436-22.7247162°42km/h16812m6.8m/s-45.0°C0.9%0hPa0V00:00:0000:00:0000:00:00
DL9RDZ-12026-09-03 11:49:4364.05381-22.7269253°42km/h16754m5.4m/s-44.9°C0.9%0hPa0V00:00:0000:00:0000:00:00
DL9RDZ-12026-09-03 11:49:3364.05318-22.7290659°38km/h16699m4.6m/s-45.2°C0.9%0hPa0V00:00:0000:00:0000:00:00
DL9RDZ-12026-09-03 11:49:2164.05268-22.7309362°40km/h16637m6.5m/s-45.3°C0.9%0hPa0V00:00:0000:00:0000:00:00
DL9RDZ-12026-09-03 11:49:1164.05215-22.7328675°38km/h16583m5.0m/s-45.2°C0.9%0hPa0V00:00:0000:00:0000:00:00
DL9RDZ-12026-09-03 11:49:0264.05172-22.7349265°40km/h16528m6.9m/s-45.5°C0.9%0hPa0V00:00:0000:00:0000:00:00
DL9RDZ-12026-09-03 11:48:5164.05119-22.7370257°49km/h16477m5.1m/s-45.7°C1.0%0hPa0V00:00:0000:00:0000:00:00
DL9RDZ-12026-09-03 11:48:4064.05056-22.7390754°38km/h16416m4.4m/s-45.7°C1.0%0hPa0V00:00:0000:00:0000:00:00
DL9RDZ-12026-09-03 11:48:3064.04989-22.7405748°40km/h16351m5.8m/s-45.7°C1.0%0hPa0V00:00:0000:00:0000:00:00
DL9RDZ-12026-09-03 11:48:2064.04937-22.7416939°31km/h16289m5.2m/s-45.9°C1.0%0hPa0V00:00:0000:00:0000:00:00
DL9RDZ-12026-09-03 11:48:0864.04880-22.7431763°31km/h16219m4.1m/s-45.7°C0.9%0hPa0V00:00:0000:00:0000:00:00
DL9RDZ-12026-09-03 11:47:5964.04838-22.7447769°35km/h16163m5.8m/s-45.8°C1.0%0hPa0V00:00:0000:00:0000:00:00
DL9RDZ-12026-09-03 11:47:4764.04806-22.7470069°33km/h16095m4.8m/s-45.9°C0.9%0hPa0V00:00:0000:00:0000:00:00
DL9RDZ-12026-09-03 11:47:3864.04773-22.7489065°40km/h16031m5.3m/s-46.2°C1.0%0hPa0V00:00:0000:00:0000:00:00
DL9RDZ-12026-09-03 11:47:2764.04725-22.7511773°42km/h15963m5.4m/s-46.1°C1.0%0hPa0V00:00:0000:00:0000:00:00
DL9RDZ-12026-09-03 11:47:1664.04674-22.7531058°38km/h15903m4.3m/s-46.3°C1.0%0hPa0V00:00:0000:00:0000:00:00
DL9RDZ-12026-09-03 11:47:0564.04627-22.7551058°35km/h15834m6.5m/s-46.4°C1.0%0hPa0V00:00:0000:00:0000:00:00
DL9RDZ-12026-09-03 11:46:4164.04554-22.7593467°33km/h15687m7.8m/s-45.9°C1.0%0hPa0V00:00:0000:00:0000:00:00
DL9RDZ-12026-09-03 11:46:3264.04521-22.7608667°29km/h15626m7.0m/s-46.0°C1.0%0hPa0V00:00:0000:00:0000:00:00
DL9RDZ-12026-09-03 11:46:2064.04465-22.7625661°26km/h15560m5.9m/s-46.0°C1.0%0hPa0V00:00:0000:00:0000:00:00
DL9RDZ-12026-09-03 11:46:1164.04420-22.7640238°35km/h15497m5.8m/s-46.0°C1.0%0hPa0V00:00:0000:00:0000:00:00
DL9RDZ-12026-09-03 11:45:5964.04365-22.7658649°35km/h15437m3.5m/s-46.2°C1.0%0hPa0V00:00:0000:00:0000:00:00
DL9RDZ-12026-09-03 11:45:4964.04319-22.7671473°26km/h15382m3.7m/s-46.0°C1.1%0hPa0V00:00:0000:00:0000:00:00
DL9RDZ-12026-09-03 11:45:3864.04261-22.7683945°29km/h15317m6.2m/s-46.3°C1.1%0hPa0V00:00:0000:00:0000:00:00
DL9RDZ-12026-09-03 11:45:2864.04205-22.7699351°33km/h15246m5.4m/s-45.9°C1.1%0hPa0V00:00:0000:00:0000:00:00
DL9RDZ-12026-09-03 11:45:1764.04150-22.7712940°35km/h15187m5.0m/s-45.7°C1.1%0hPa0V00:00:0000:00:0000:00:00
DL9RDZ-12026-09-03 11:45:0764.04088-22.7726754°24km/h15125m6.6m/s-45.4°C1.0%0hPa0V00:00:0000:00:0000:00:00
DL9RDZ-12026-09-03 11:44:5564.04037-22.7741054°31km/h15054m10.1m/s-45.2°C1.0%0hPa0V00:00:0000:00:0000:00:00
DL9RDZ-12026-09-03 11:44:4564.03967-22.7753433°27km/h14983m4.8m/s-45.1°C1.0%0hPa0V00:00:0000:00:0000:00:00
DL9RDZ-12026-09-03 11:44:3364.03904-22.7767432°24km/h14915m4.9m/s-45.5°C1.1%0hPa0V00:00:0000:00:0000:00:00
DL9RDZ-12026-09-03 11:42:3164.03345-22.7929223°16km/h14177m6.0m/s-44.9°C1.1%0hPa0V00:00:0000:00:0000:00:00
DL9RDZ-12026-09-03 11:42:2164.03301-22.7935828°18km/h14122m4.7m/s-45.0°C1.1%0hPa0V00:00:0000:00:0000:00:00
DL9RDZ-12026-09-03 11:42:1064.03258-22.7941539°20km/h14060m6.3m/s-44.9°C1.1%0hPa0V00:00:0000:00:0000:00:00
DL9RDZ-12026-09-03 11:41:5964.03203-22.7950848°27km/h13991m6.8m/s-44.8°C1.1%0hPa0V00:00:0000:00:0000:00:00
DL9RDZ-12026-09-03 11:38:4764.02132-22.8170845°27km/h12876m5.9m/s-45.1°C1.4%0hPa0V00:00:0000:00:0000:00:00
DL9RDZ-12026-09-03 11:38:3664.02071-22.8185544°35km/h12815m6.2m/s-45.0°C1.3%0hPa0V00:00:0000:00:0000:00:00
DL9RDZ-12026-09-03 11:38:2664.02017-22.8198552°31km/h12759m6.1m/s-44.8°C1.3%0hPa0V00:00:0000:00:0000:00:00
DL9RDZ-12026-09-03 11:38:1564.01961-22.8211353°37km/h12692m5.7m/s-45.0°C1.4%0hPa0V00:00:0000:00:0000:00:00
DL9RDZ-12026-09-03 11:38:0464.01880-22.8222929°33km/h12623m7.7m/s-45.4°C1.4%0hPa0V00:00:0000:00:0000:00:00
DL9RDZ-12026-09-03 11:37:5464.01816-22.8231834°24km/h12561m6.0m/s-45.6°C1.5%0hPa0V00:00:0000:00:0000:00:00
DL9RDZ-12026-09-03 11:37:4264.01745-22.8242913°37km/h12488m6.3m/s-45.9°C1.5%0hPa0V00:00:0000:00:0000:00:00
DL9RDZ-12026-09-03 11:37:3164.01671-22.8248243°22km/h12408m6.9m/s-45.4°C1.6%0hPa0V00:00:0000:00:0000:00:00
DL9RDZ-12026-09-03 11:37:2164.01619-22.8256851°22km/h12340m7.2m/s-45.7°C1.6%0hPa0V00:00:0000:00:0000:00:00
DL9RDZ-12026-09-03 11:37:1164.01572-22.8268738°27km/h12271m7.3m/s-45.4°C1.6%0hPa0V00:00:0000:00:0000:00:00
DL9RDZ-12026-09-03 11:37:0064.01523-22.8275840°18km/h12204m7.5m/s-45.5°C1.6%0hPa0V00:00:0000:00:0000:00:00
DL9RDZ-12026-09-03 11:36:4964.01474-22.8281629°18km/h12135m3.5m/s-45.5°C1.5%0hPa0V00:00:0000:00:0000:00:00
DL9RDZ-12026-09-03 11:36:3964.01421-22.8286719°18km/h12070m6.8m/s-45.6°C1.5%0hPa0V00:00:0000:00:0000:00:00
DL9RDZ-12026-09-03 11:36:1064.01284-22.8308410°20km/h11894m5.8m/s-46.1°C1.6%0hPa0V00:00:0000:00:0000:00:00
DL9RDZ-12026-09-03 11:36:0064.01213-22.8310227km/h11832m6.7m/s-46.4°C1.7%0hPa0V00:00:0000:00:0000:00:00
DL9RDZ-12026-09-03 11:35:4964.01166-22.8319541°37km/h11746m9.3m/s-46.6°C1.8%0hPa0V00:00:0000:00:0000:00:00
DL9RDZ-12026-09-03 11:35:3964.01104-22.8325430°38km/h11668m7.8m/s-46.9°C1.9%0hPa0V00:00:0000:00:0000:00:00
DL9RDZ-12026-09-03 11:35:2864.01034-22.83312361°22km/h11599m6.0m/s-47.1°C2.1%0hPa0V00:00:0000:00:0000:00:00
DL9RDZ-12026-09-03 11:35:1764.00970-22.83324357°33km/h11521m5.9m/s-47.1°C2.1%0hPa0V00:00:0000:00:0000:00:00
DL9RDZ-12026-09-03 11:35:0664.00884-22.8332129km/h11442m5.1m/s-46.9°C1.9%0hPa0V00:00:0000:00:0000:00:00
DL9RDZ-12026-09-03 11:34:5564.00810-22.8335826km/h11375m5.6m/s-46.9°C2.0%0hPa0V00:00:0000:00:0000:00:00
DL9RDZ-12026-09-03 11:34:4464.00750-22.8338539°22km/h11293m7.9m/s-47.1°C2.1%0hPa0V00:00:0000:00:0000:00:00
DL9RDZ-12026-09-03 11:34:3364.00703-22.8339627°18km/h11221m6.7m/s-47.9°C2.7%0hPa0V00:00:0000:00:0000:00:00
DL9RDZ-12026-09-03 11:32:1063.99699-22.83153339°42km/h10257m8.6m/s-52.7°C19.9%0hPa0V00:00:0000:00:0000:00:00
DL9RDZ-12026-09-03 11:31:5963.99603-22.83036338°46km/h10180m7.5m/s-53.2°C22.5%0hPa0V00:00:0000:00:0000:00:00
DL9RDZ-12026-09-03 11:31:4963.99503-22.82865320°40km/h10104m6.6m/s-53.3°C23.4%0hPa0V00:00:0000:00:0000:00:00
DL9RDZ-12026-09-03 11:31:3863.99408-22.82668314°46km/h10032m6.4m/s-52.9°C23.0%0hPa0V00:00:0000:00:0000:00:00
DL9RDZ-12026-09-03 11:31:2763.99335-22.82482315°42km/h9966m6.9m/s-52.8°C21.7%0hPa0V00:00:0000:00:0000:00:00
DL9RDZ-12026-09-03 11:31:1663.99262-22.82273319°42km/h9901m5.6m/s-52.4°C21.3%0hPa0V00:00:0000:00:0000:00:00
DL9RDZ-12026-09-03 11:31:0663.99195-22.82168336°35km/h9835m8.6m/s-52.9°C26.1%0hPa0V00:00:0000:00:0000:00:00
DL9RDZ-12026-09-03 11:30:5663.99109-22.82098335°33km/h9770m4.4m/s-52.5°C23.5%0hPa0V00:00:0000:00:0000:00:00
DL9RDZ-12026-09-03 11:30:4563.99018-22.81941314°44km/h9699m8.3m/s-52.6°C23.3%0hPa0V00:00:0000:00:0000:00:00
DL9RDZ-12026-09-03 11:30:3463.98939-22.81803334°42km/h9630m9.2m/s-52.4°C25.7%0hPa0V00:00:0000:00:0000:00:00
DL9RDZ-12026-09-03 11:30:2363.98847-22.81620324°42km/h9560m6.3m/s-52.1°C28.0%0hPa0V00:00:0000:00:0000:00:00
DL9RDZ-12026-09-03 11:30:1463.98780-22.81415297°40km/h9496m5.5m/s-52.0°C30.7%0hPa0V00:00:0000:00:0000:00:00
DL9RDZ-12026-09-03 11:29:5163.98648-22.81021307°47km/h9349m6.8m/s-52.2°C35.4%0hPa0V00:00:0000:00:0000:00:00
DL9RDZ-12026-09-03 11:29:4163.98597-22.80797305°42km/h9278m7.5m/s-51.8°C37.8%0hPa0V00:00:0000:00:0000:00:00
DL9RDZ-12026-09-03 11:29:3063.98543-22.80584286°46km/h9208m6.1m/s-51.5°C38.2%0hPa0V00:00:0000:00:0000:00:00
DL9RDZ-12026-09-03 11:29:1963.98496-22.80400295°42km/h9145m5.0m/s-51.4°C40.1%0hPa0V00:00:0000:00:0000:00:00
DL9RDZ-12026-09-03 11:29:0863.98455-22.80196303°29km/h9085m8.3m/s-50.9°C39.6%0hPa0V00:00:0000:00:0000:00:00
DL9RDZ-12026-09-03 11:28:5863.98438-22.80047267°38km/h9022m5.6m/s-50.3°C39.6%0hPa0V00:00:0000:00:0000:00:00
DL9RDZ-12026-09-03 11:28:4763.98411-22.79890283°40km/h8950m6.9m/s-50.0°C39.9%0hPa0V00:00:0000:00:0000:00:00
DL9RDZ-12026-09-03 11:28:3663.98399-22.79727287°33km/h8883m4.4m/s-49.5°C43.1%0hPa0V00:00:0000:00:0000:00:00
DL9RDZ-12026-09-03 11:28:2663.98390-22.79584293°29km/h8825m3.8m/s-49.0°C40.2%0hPa0V00:00:0000:00:0000:00:00
DL9RDZ-12026-09-03 11:28:1563.98400-22.79473272°18km/h8756m5.0m/s-48.4°C42.0%0hPa0V00:00:0000:00:0000:00:00
DL9RDZ-12026-09-03 11:28:0463.98377-22.79366278°22km/h8690m5.6m/s-48.2°C50.3%0hPa0V00:00:0000:00:0000:00:00
DL9RDZ-12026-09-03 11:27:5363.98362-22.79216287°22km/h8626m7.5m/s-47.8°C47.7%0hPa0V00:00:0000:00:0000:00:00
DL9RDZ-12026-09-03 11:27:4263.98349-22.79064266°31km/h8561m5.7m/s-47.3°C54.1%0hPa0V00:00:0000:00:0000:00:00
DL9RDZ-12026-09-03 11:27:3163.98343-22.78917270°20km/h8499m7.0m/s-46.9°C54.5%0hPa0V00:00:0000:00:0000:00:00
DL9RDZ-12026-09-03 11:27:2163.98336-22.78787276°31km/h8441m6.3m/s-46.2°C55.3%0hPa0V00:00:0000:00:0000:00:00
DL9RDZ-12026-09-03 11:27:1063.98323-22.78652298°24km/h8378m5.7m/s-45.7°C57.0%0hPa0V00:00:0000:00:0000:00:00
DL9RDZ-12026-09-03 11:26:5963.98310-22.78501279°31km/h8321m5.0m/s-45.2°C52.9%0hPa0V00:00:0000:00:0000:00:00
DL9RDZ-12026-09-03 11:26:4863.98298-22.78360284°22km/h8263m6.1m/s-44.7°C47.7%0hPa0V00:00:0000:00:0000:00:00
DL9RDZ-12026-09-03 11:26:3863.98276-22.78211263°24km/h8211m4.9m/s-44.1°C44.8%0hPa0V00:00:0000:00:0000:00:00
DL9RDZ-12026-09-03 11:26:2763.98253-22.78051292°31km/h8152m6.8m/s-43.6°C43.4%0hPa0V00:00:0000:00:0000:00:00
DL9RDZ-12026-09-03 11:26:1663.98220-22.77903301°15km/h8088m6.5m/s-43.1°C47.7%0hPa0V00:00:0000:00:0000:00:00
DL9RDZ-12026-09-03 11:26:0663.98199-22.77803283°16km/h8026m6.4m/s-42.5°C47.6%0hPa0V00:00:0000:00:0000:00:00
DL9RDZ-12026-09-03 11:25:5563.98170-22.77665275°42km/h7964m3.7m/s-42.0°C49.4%0hPa0V00:00:0000:00:0000:00:00
DL9RDZ-12026-09-03 11:25:4463.98141-22.77452301°37km/h7901m4.7m/s-41.6°C63.9%0hPa0V00:00:0000:00:0000:00:00
DL9RDZ-12026-09-03 11:25:3363.98110-22.77253280°29km/h7837m5.5m/s-40.9°C65.0%0hPa0V00:00:0000:00:0000:00:00
DL9RDZ-12026-09-03 11:24:0863.97839-22.75980305°20km/h7346m5.9m/s-36.5°C64.3%0hPa0V00:00:0000:00:0000:00:00
DL9RDZ-12026-09-03 11:23:5463.97795-22.75792285°27km/h7267m5.1m/s-35.8°C63.9%0hPa0V00:00:0000:00:0000:00:00
DL9RDZ-12026-09-03 11:23:0863.97680-22.75088287°31km/h7000m6.1m/s-33.4°C71.4%0hPa0V00:00:0000:00:0000:00:00
DL9RDZ-12026-09-03 11:22:5763.97653-22.74920283°22km/h6930m6.5m/s-32.8°C77.3%0hPa0V00:00:0000:00:0000:00:00
DL9RDZ-12026-09-03 11:22:4663.97631-22.74720296°40km/h6864m5.7m/s-32.3°C79.1%0hPa0V00:00:0000:00:0000:00:00
DL9RDZ-12026-09-03 11:22:3563.97601-22.74542289°18km/h6795m7.2m/s-31.7°C84.6%0hPa0V00:00:0000:00:0000:00:00
DL9RDZ-12026-09-03 11:22:2563.97582-22.74401296°22km/h6737m5.6m/s-31.2°C87.2%0hPa0V00:00:0000:00:0000:00:00
DL9RDZ-12026-09-03 11:22:1563.97567-22.74254293°33km/h6677m5.4m/s-30.8°C88.8%0hPa0V00:00:0000:00:0000:00:00
DL9RDZ-12026-09-03 11:22:0463.97562-22.74114282°20km/h6607m5.5m/s-30.2°C95.5%0hPa0V00:00:0000:00:0000:00:00
DL9RDZ-12026-09-03 11:21:5363.97547-22.73948264°31km/h6539m4.4m/s-29.6°C95.5%0hPa0V00:00:0000:00:0000:00:00
DL9RDZ-12026-09-03 11:21:4263.97552-22.73811237°27km/h6470m6.5m/s-29.0°C93.9%0hPa0V00:00:0000:00:0000:00:00
DL9RDZ-12026-09-03 11:21:3163.97560-22.73692291°18km/h6401m5.0m/s-28.4°C91.4%0hPa0V00:00:0000:00:0000:00:00
DL9RDZ-12026-09-03 11:21:2163.97560-22.73594265°22km/h6340m6.0m/s-27.9°C89.5%0hPa0V00:00:0000:00:0000:00:00
DL9RDZ-12026-09-03 11:21:1063.97569-22.73501287°11km/h6267m5.9m/s-27.3°C86.8%0hPa0V00:00:0000:00:0000:00:00
DL9RDZ-12026-09-03 11:20:5963.97561-22.73398259°18km/h6198m7.2m/s-26.8°C86.7%0hPa0V00:00:0000:00:0000:00:00
DL9RDZ-12026-09-03 11:20:4863.97572-22.73344311°15km/h6126m7.5m/s-26.2°C83.9%0hPa0V00:00:0000:00:0000:00:00
DL9RDZ-12026-09-03 11:20:3663.97556-22.73269294°20km/h6050m5.6m/s-25.7°C83.6%0hPa0V00:00:0000:00:0000:00:00
DL9RDZ-12026-09-03 11:18:5563.97380-22.72908243°4km/h5432m6.3m/s-21.2°C82.3%0hPa0V00:00:0000:00:0000:00:00
DL9RDZ-12026-09-03 11:18:3963.97360-22.72860322°11km/h5335m6.7m/s-20.5°C83.1%0hPa0V00:00:0000:00:0000:00:00
DL9RDZ-12026-09-03 11:18:1563.97323-22.72798340°13km/h5190m6.1m/s-19.6°C83.8%0hPa0V00:00:0000:00:0000:00:00
DL9RDZ-12026-09-03 11:18:0263.97299-22.72762344°11km/h5112m6.1m/s-19.2°C84.7%0hPa0V00:00:0000:00:0000:00:00
DL9RDZ-12026-09-03 11:17:5263.97280-22.72726345°4km/h5050m6.1m/s-18.8°C85.6%0hPa0V00:00:0000:00:0000:00:00
DL9RDZ-12026-09-03 11:17:4163.97256-22.72701340°13km/h4989m5.8m/s-18.5°C87.9%0hPa0V00:00:0000:00:0000:00:00
DL9RDZ-12026-09-03 11:17:3063.97235-22.726839km/h4924m6.0m/s-18.1°C88.9%0hPa0V00:00:0000:00:0000:00:00
DL9RDZ-12026-09-03 11:17:1963.97203-22.72664335°11km/h4857m5.9m/s-17.7°C87.8%0hPa0V00:00:0000:00:0000:00:00
DL9RDZ-12026-09-03 11:17:0963.97176-22.72632325°13km/h4798m6.0m/s-17.4°C88.9%0hPa0V00:00:0000:00:0000:00:00
DL9RDZ-12026-09-03 11:16:5863.97147-22.72580343°13km/h4731m5.7m/s-17.0°C88.7%0hPa0V00:00:0000:00:0000:00:00
DL9RDZ-12026-09-03 11:16:4763.97108-22.72507295°20km/h4664m7.2m/s-16.5°C88.2%0hPa0V00:00:0000:00:0000:00:00
DL9RDZ-12026-09-03 11:16:3763.97080-22.72425323°15km/h4604m6.8m/s-16.2°C88.8%0hPa0V00:00:0000:00:0000:00:00
DL9RDZ-12026-09-03 11:16:2763.97045-22.72352293°24km/h4543m5.7m/s-15.8°C87.9%0hPa0V00:00:0000:00:0000:00:00
DL9RDZ-12026-09-03 11:16:1663.97017-22.72258311°13km/h4483m6.1m/s-15.4°C88.2%0hPa0V00:00:0000:00:0000:00:00
DL9RDZ-12026-09-03 11:16:0663.96985-22.72174313°26km/h4426m6.6m/s-15.1°C88.4%0hPa0V00:00:0000:00:0000:00:00
DL9RDZ-12026-09-03 11:15:5563.96952-22.72052314°20km/h4363m5.8m/s-14.6°C87.7%0hPa0V00:00:0000:00:0000:00:00
DL9RDZ-12026-09-03 11:15:4463.96918-22.71945292°26km/h4297m6.3m/s-14.2°C86.6%0hPa0V00:00:0000:00:0000:00:00
DL9RDZ-12026-09-03 11:15:3363.96902-22.71810280°22km/h4229m5.6m/s-14.0°C88.0%0hPa0V00:00:0000:00:0000:00:00
DL9RDZ-12026-09-03 11:15:2263.96882-22.71664290°26km/h4161m5.6m/s-13.6°C87.9%0hPa0V00:00:0000:00:0000:00:00
DL9RDZ-12026-09-03 11:15:1163.96857-22.71531307°27km/h4098m4.6m/s-13.3°C89.5%0hPa0V00:00:0000:00:0000:00:00
DL9RDZ-12026-09-03 11:15:0163.96829-22.71399299°31km/h4040m6.3m/s-12.9°C88.3%0hPa0V00:00:0000:00:0000:00:00
DL9RDZ-12026-09-03 11:14:5063.96799-22.71243297°31km/h3973m5.9m/s-12.5°C88.2%0hPa0V00:00:0000:00:0000:00:00
DL9RDZ-12026-09-03 11:14:2963.96746-22.70950292°27km/h3849m6.9m/s-11.8°C88.1%0hPa0V00:00:0000:00:0000:00:00
DL9RDZ-12026-09-03 11:14:1863.96712-22.70785299°33km/h3782m6.2m/s-11.4°C88.6%0hPa0V00:00:0000:00:0000:00:00
DL9RDZ-12026-09-03 11:14:0863.96686-22.70642300°20km/h3721m5.4m/s-11.1°C90.8%0hPa0V00:00:0000:00:0000:00:00
DL9RDZ-12026-09-03 11:13:5863.96641-22.70495294°29km/h3658m6.3m/s-10.8°C89.5%0hPa0V00:00:0000:00:0000:00:00
DL9RDZ-12026-09-03 11:13:4763.96608-22.70346291°26km/h3600m5.5m/s-10.5°C88.8%0hPa0V00:00:0000:00:0000:00:00
DL9RDZ-12026-09-03 11:13:3763.96577-22.70192296°33km/h3545m6.8m/s-10.2°C87.9%0hPa0V00:00:0000:00:0000:00:00
DL9RDZ-12026-09-03 11:13:2663.96540-22.70016295°35km/h3477m5.1m/s-9.7°C87.4%0hPa0V00:00:0000:00:0000:00:00
DL9RDZ-12026-09-03 11:13:1663.96516-22.69840271°31km/h3422m5.1m/s-9.4°C85.9%0hPa0V00:00:0000:00:0000:00:00
DL9RDZ-12026-09-03 11:13:0563.96506-22.69663286°33km/h3362m6.2m/s-9.0°C84.6%0hPa0V00:00:0000:00:0000:00:00
DL9RDZ-12026-09-03 11:12:5463.96493-22.69490273°22km/h3300m5.2m/s-8.7°C84.7%0hPa0V00:00:0000:00:0000:00:00
DL9RDZ-12026-09-03 11:12:4363.96485-22.69313268°31km/h3240m5.5m/s-8.6°C85.3%0hPa0V00:00:0000:00:0000:00:00
DL9RDZ-12026-09-03 11:12:3463.96476-22.69154282°22km/h3186m6.9m/s-8.4°C84.4%0hPa0V00:00:0000:00:0000:00:00
DL9RDZ-12026-09-03 11:12:2263.96476-22.68989264°27km/h3122m4.6m/s-8.3°C86.3%0hPa0V00:00:0000:00:0000:00:00
DL9RDZ-12026-09-03 11:12:1663.96477-22.68840267°24km/h3065m7.2m/s-8.2°C87.1%0hPa0V00:00:0000:00:0000:00:00
DL9RDZ-12026-09-03 11:12:0163.96490-22.68731264°22km/h2998m6.0m/s-8.1°C88.2%0hPa0V00:00:0000:00:0000:00:00
DL9RDZ-12026-09-03 11:11:5163.96503-22.68600260°20km/h2943m4.7m/s-8.1°C90.2%0hPa0V00:00:0000:00:0000:00:00
DL9RDZ-12026-09-03 11:11:4163.96513-22.68460265°26km/h2892m4.3m/s-8.2°C92.2%0hPa0V00:00:0000:00:0000:00:00
DL9RDZ-12026-09-03 11:11:3063.96534-22.68322234°20km/h2832m6.7m/s-8.1°C92.6%0hPa0V00:00:0000:00:0000:00:00
DL9RDZ-12026-09-03 11:11:2063.96555-22.68232237°20km/h2773m6.0m/s-7.7°C91.2%0hPa0V00:00:0000:00:0000:00:00
DL9RDZ-12026-09-03 11:11:0963.96586-22.68142255°18km/h2711m5.2m/s-7.3°C94.4%0hPa0V00:00:0000:00:0000:00:00
DL9RDZ-12026-09-03 11:10:5863.96605-22.68052241°13km/h2649m5.5m/s-6.9°C96.3%0hPa0V00:00:0000:00:0000:00:00
DL9RDZ-12026-09-03 11:10:4863.96618-22.67977261°13km/h2592m6.1m/s-6.5°C96.5%0hPa0V00:00:0000:00:0000:00:00
DL9RDZ-12026-09-03 11:10:3863.96620-22.67910276°13km/h2531m6.8m/s-6.1°C96.0%0hPa0V00:00:0000:00:0000:00:00
DL9RDZ-12026-09-03 11:10:2763.96613-22.67823273°11km/h2464m6.1m/s-5.7°C96.5%0hPa0V00:00:0000:00:0000:00:00
DL9RDZ-12026-09-03 11:10:1663.96606-22.67745291°15km/h2398m7.4m/s-5.3°C95.8%0hPa0V00:00:0000:00:0000:00:00
DL9RDZ-12026-09-03 11:10:0563.96588-22.67643282°20km/h2331m6.0m/s-5.0°C95.5%0hPa0V00:00:0000:00:0000:00:00
DL9RDZ-12026-09-03 11:09:5563.96566-22.67533298°24km/h2275m6.0m/s-4.6°C95.9%0hPa0V00:00:0000:00:0000:00:00
DL9RDZ-12026-09-03 11:09:4463.96541-22.67400300°16km/h2215m4.7m/s-4.3°C97.4%0hPa0V00:00:0000:00:0000:00:00
DL9RDZ-12026-09-03 11:09:3463.96508-22.67298313°27km/h2165m5.8m/s-4.2°C98.1%0hPa0V00:00:0000:00:0000:00:00
DL9RDZ-12026-09-03 11:09:2463.96467-22.67161301°26km/h2111m4.9m/s-3.8°C97.5%0hPa0V00:00:0000:00:0000:00:00
DL9RDZ-12026-09-03 11:09:1363.96415-22.67012314°33km/h2054m5.9m/s-3.5°C98.0%0hPa0V00:00:0000:00:0000:00:00
DL9RDZ-12026-09-03 11:09:0163.96369-22.66865292°26km/h1990m6.5m/s-3.0°C96.2%0hPa0V00:00:0000:00:0000:00:00
DL9RDZ-12026-09-03 11:08:4763.96295-22.66672318°37km/h1917m4.6m/s-2.9°C0%0hPa0V00:00:0000:00:0000:00:00
DL9RDZ-12026-09-03 11:08:3663.96232-22.66482301°40km/h1865m4.6m/s-2.9°C0%0hPa0V00:00:0000:00:0000:00:00
DL9RDZ-12026-09-03 11:07:4363.95939-22.65236300°51km/h1614m4.9m/s-1.7°C0%0hPa0V00:00:0000:00:0000:00:00
DL9RDZ-12026-09-03 11:07:3263.95897-22.64956278°44km/h1566m4.6m/s-1.5°C0%0hPa0V00:00:0000:00:0000:00:00
DL9RDZ-12026-09-03 11:07:2263.95882-22.64722273°38km/h1521m4.8m/s-1.5°C0%0hPa0V00:00:0000:00:0000:00:00
DL9RDZ-12026-09-03 11:07:1263.95863-22.64548277°22km/h1469m5.4m/s-1.1°C0%0hPa0V00:00:0000:00:0000:00:00
DL9RDZ-12026-09-03 11:06:5963.95843-22.64410296°16km/h1401m4.6m/s-0.9°C0%0hPa0V00:00:0000:00:0000:00:00
DL9RDZ-12026-09-03 11:06:4663.95808-22.64326309°20km/h1328m6.2m/s-0.3°C0%0hPa0V00:00:0000:00:0000:00:00
DL9RDZ-12026-09-03 11:06:3463.95775-22.64242263°15km/h1262m7.4m/s0.1°C0%0hPa0V00:00:0000:00:0000:00:00
DL9RDZ-12026-09-03 11:06:2463.95773-22.64186238°16km/h1202m7.3m/s0.7°C0%0hPa0V00:00:0000:00:0000:00:00
DL9RDZ-12026-09-03 11:06:1363.95775-22.64115245°16km/h1144m6.5m/s1.2°C0%0hPa0V00:00:0000:00:0000:00:00


GPX KML Map

© wettersonde.net (DO2JMG) - 2026  -  -